In Rescue
 
Open Full Screen Window  High Contrast Mode
Wind Gusting 00 knots
06
July 24, 2024 6:19 PM EDT
Weather Information
Wind Direction
  280 °
Wind Speed
  06 kt (7 mph)
Wind Gust
  00 kt (0 mph)
Altimeter
30.12 in
Visibility
10 SM
Temperature
23° C
73° F
Dewpoint
20° C
68° F
Humidity
83%
1hr Rain Fall
00.00 in.
24hr Rain Fall
00.20 in.
Sky Condition
Clear
VFR

METAR KMRT 242219Z AUTO 28006KT 10SM CLR 23/20 A3012 RMK AO2 T02320199

FAA Disclaimer: The data displayed is for advisory purposes only and is not to be used for flight planning or operations.